createdAt,value
2022-11-14T00:01:09.697Z,83.60
2022-11-14T00:02:31.973Z,83.70
2022-11-14T00:03:54.186Z,83.70
2022-11-14T00:05:16.648Z,83.80
2022-11-14T00:06:38.500Z,84.00
2022-11-14T00:08:00.854Z,84.10
2022-11-14T00:09:27.595Z,84.10
2022-11-14T00:10:52.017Z,84.30
2022-11-14T00:12:13.101Z,84.60
2022-11-14T00:13:35.115Z,84.70
2022-11-14T00:14:56.300Z,84.60
2022-11-14T00:16:18.608Z,84.50
2022-11-14T00:17:40.409Z,84.60
2022-11-14T00:19:02.453Z,84.70
2022-11-14T00:20:24.716Z,84.60
2022-11-14T00:21:46.806Z,84.60
2022-11-14T00:23:08.882Z,84.60
2022-11-14T00:24:32.583Z,84.70
2022-11-14T00:25:54.701Z,84.60
2022-11-14T00:27:16.983Z,84.60
2022-11-14T00:28:39.363Z,84.60
2022-11-14T00:30:01.357Z,84.70
2022-11-14T00:31:23.487Z,84.60
2022-11-14T00:32:44.641Z,84.50
2022-11-14T00:34:07.301Z,84.50
2022-11-14T00:35:29.557Z,84.50
2022-11-14T00:36:50.399Z,84.40
2022-11-14T00:38:12.582Z,84.40
2022-11-14T00:39:36.254Z,84.50
2022-11-14T00:40:58.021Z,84.50
2022-11-14T00:42:20.168Z,84.40
2022-11-14T00:43:41.595Z,84.60
2022-11-14T00:45:03.970Z,84.60
2022-11-14T00:46:25.814Z,84.50
2022-11-14T00:47:48.096Z,84.60
2022-11-14T00:49:10.478Z,84.60
2022-11-14T00:50:31.400Z,84.70
2022-11-14T00:51:53.504Z,84.70
2022-11-14T00:53:15.955Z,84.90
2022-11-14T00:54:38.949Z,85.00
2022-11-14T00:56:00.938Z,85.00
2022-11-14T00:57:23.179Z,84.90
2022-11-14T00:58:45.432Z,84.80
2022-11-14T01:00:10.195Z,84.90
2022-11-14T01:01:31.323Z,84.90
2022-11-14T01:02:56.738Z,85.00
2022-11-14T01:04:18.494Z,85.00
2022-11-14T01:05:43.496Z,84.70
2022-11-14T01:07:05.618Z,85.00
2022-11-14T01:08:26.543Z,85.00
2022-11-14T01:09:49.832Z,85.00
2022-11-14T01:11:13.071Z,85.10
2022-11-14T01:12:35.746Z,85.20
2022-11-14T01:13:58.035Z,85.20
2022-11-14T01:15:19.151Z,85.30
2022-11-14T01:16:41.474Z,85.40
2022-11-14T01:18:02.594Z,85.60
2022-11-14T01:19:24.742Z,85.60
2022-11-14T01:20:48.487Z,85.60
2022-11-14T01:22:11.076Z,85.60
2022-11-14T01:23:31.787Z,85.60
2022-11-14T01:24:58.304Z,85.70
2022-11-14T01:26:20.129Z,85.80
2022-11-14T01:27:41.012Z,86.00
2022-11-14T01:29:02.827Z,85.80
2022-11-14T01:30:23.960Z,85.80
2022-11-14T01:31:45.839Z,86.00
2022-11-14T01:33:07.861Z,86.00
2022-11-14T01:34:30.422Z,85.90
2022-11-14T01:35:52.734Z,85.90
2022-11-14T01:37:13.550Z,85.90
2022-11-14T01:38:36.805Z,86.10
2022-11-14T01:39:59.954Z,86.10
2022-11-14T01:41:23.538Z,86.00
2022-11-14T01:43:26.225Z,86.00
2022-11-14T01:44:52.381Z,86.10
2022-11-14T01:46:17.404Z,86.20
2022-11-14T01:47:39.677Z,86.20
2022-11-14T01:49:05.002Z,86.30
2022-11-14T01:50:28.602Z,86.60
2022-11-14T01:51:55.955Z,86.50
2022-11-14T01:53:16.963Z,86.50
2022-11-14T01:54:42.881Z,86.60
2022-11-14T01:56:09.906Z,86.30
2022-11-14T01:57:37.337Z,86.60
2022-11-14T01:59:04.180Z,86.50
2022-11-14T02:00:25.066Z,86.50
2022-11-14T02:01:50.225Z,86.50
2022-11-14T02:03:14.110Z,86.60
2022-11-14T02:04:41.144Z,86.70
2022-11-14T02:06:05.616Z,86.80
2022-11-14T02:07:29.447Z,86.90
2022-11-14T02:08:53.266Z,86.80
2022-11-14T02:10:19.300Z,87.10
2022-11-14T02:11:45.827Z,87.10
2022-11-14T02:13:08.561Z,87.20
2022-11-14T02:14:31.200Z,87.10
2022-11-14T02:15:53.856Z,87.20
2022-11-14T02:17:33.712Z,87.20
2022-11-14T02:18:56.133Z,87.20
2022-11-14T02:20:22.936Z,87.30
2022-11-14T02:21:45.098Z,87.30
2022-11-14T02:23:06.509Z,87.30
2022-11-14T02:24:28.827Z,87.40
2022-11-14T02:25:50.102Z,87.60
2022-11-14T02:27:13.911Z,87.70
2022-11-14T02:28:36.066Z,87.70
2022-11-14T02:30:06.699Z,87.70
2022-11-14T02:31:28.580Z,87.80
2022-11-14T02:33:10.014Z,87.80
2022-11-14T02:34:33.227Z,87.70
2022-11-14T02:35:55.810Z,87.80
2022-11-14T02:37:17.670Z,87.80
2022-11-14T02:38:39.853Z,87.70
2022-11-14T02:40:00.870Z,87.80
2022-11-14T02:41:24.957Z,87.80
2022-11-14T02:42:48.768Z,87.90
2022-11-14T02:44:12.084Z,88.10
2022-11-14T02:45:33.031Z,88.00
2022-11-14T02:46:55.116Z,88.30
2022-11-14T02:48:17.277Z,88.60
2022-11-14T02:49:38.975Z,88.60
2022-11-14T02:51:02.469Z,88.80
2022-11-14T02:52:23.731Z,89.00
2022-11-14T02:53:45.833Z,88.90
2022-11-14T02:55:08.114Z,88.90
2022-11-14T02:56:29.925Z,89.00
2022-11-14T02:57:51.882Z,89.00
2022-11-14T02:59:13.025Z,89.20
2022-11-14T03:00:38.458Z,89.20
2022-11-14T03:02:05.957Z,88.80
2022-11-14T03:03:27.064Z,89.40
2022-11-14T03:04:49.099Z,89.30
2022-11-14T03:06:11.642Z,89.60
2022-11-14T03:07:33.779Z,89.50
2022-11-14T03:08:54.898Z,89.30
2022-11-14T03:10:17.155Z,89.20
2022-11-14T03:11:40.320Z,89.50
2022-11-14T03:13:02.604Z,89.50
2022-11-14T03:14:24.660Z,89.50
2022-11-14T03:15:45.985Z,89.50
2022-11-14T03:17:07.776Z,89.50
2022-11-14T03:18:30.169Z,89.70
2022-11-14T03:19:52.501Z,89.80
2022-11-14T03:21:18.175Z,90.00
2022-11-14T03:22:39.263Z,90.00
2022-11-14T03:24:01.555Z,90.10
2022-11-14T03:25:22.502Z,89.90
2022-11-14T03:26:44.603Z,90.10
2022-11-14T03:28:07.140Z,90.10
2022-11-14T03:29:28.283Z,90.20
2022-11-14T03:30:50.414Z,89.90
2022-11-14T03:32:11.449Z,90.10
2022-11-14T03:33:35.426Z,90.10
2022-11-14T03:34:56.260Z,90.30
2022-11-14T03:36:19.820Z,90.30
2022-11-14T03:37:41.536Z,90.30
2022-11-14T03:39:03.453Z,90.30
2022-11-14T03:40:25.454Z,90.40
2022-11-14T03:41:46.054Z,90.40
2022-11-14T03:43:08.242Z,90.40
2022-11-14T03:44:30.588Z,90.40
2022-11-14T03:45:52.815Z,90.40
2022-11-14T03:47:14.955Z,90.40
2022-11-14T03:48:36.295Z,90.40
2022-11-14T03:49:58.504Z,90.50
2022-11-14T03:51:21.202Z,90.50
2022-11-14T03:52:43.064Z,90.40
2022-11-14T03:54:04.179Z,90.40
2022-11-14T03:55:25.929Z,90.30
2022-11-14T03:56:48.266Z,90.30
2022-11-14T03:58:09.358Z,90.40
2022-11-14T03:59:31.533Z,90.30
2022-11-14T04:00:53.116Z,90.40
2022-11-14T04:02:15.140Z,90.30
2022-11-14T04:03:36.331Z,90.40
2022-11-14T04:04:58.173Z,90.40
2022-11-14T04:06:21.642Z,90.40
2022-11-14T04:07:42.548Z,90.30
2022-11-14T04:09:06.434Z,90.40
2022-11-14T04:10:27.412Z,90.50
2022-11-14T04:11:49.622Z,90.40
2022-11-14T04:13:10.802Z,90.50
2022-11-14T04:14:32.850Z,90.50
2022-11-14T04:15:58.269Z,90.70
2022-11-14T04:17:20.162Z,90.80
2022-11-14T04:18:41.358Z,90.70
2022-11-14T04:20:03.515Z,90.80
2022-11-14T04:21:26.739Z,90.80
2022-11-14T04:22:48.751Z,90.80
2022-11-14T04:24:11.317Z,90.70
2022-11-14T04:25:32.095Z,90.80
2022-11-14T04:26:54.359Z,90.80
2022-11-14T04:28:16.784Z,90.90
2022-11-14T04:31:01.095Z,90.80
2022-11-14T04:32:22.876Z,90.80
2022-11-14T04:33:45.023Z,90.80
2022-11-14T04:35:06.767Z,90.80
2022-11-14T04:36:30.704Z,90.80
2022-11-14T04:37:53.767Z,90.80
2022-11-14T04:39:15.621Z,90.80
2022-11-14T04:40:37.650Z,90.70
2022-11-14T04:41:59.594Z,90.80
2022-11-14T04:43:21.467Z,90.70
2022-11-14T04:44:43.615Z,90.80
2022-11-14T04:46:05.397Z,90.80
2022-11-14T04:47:27.422Z,90.80
2022-11-14T04:48:49.643Z,90.80
2022-11-14T04:50:10.973Z,90.70
2022-11-14T04:51:33.959Z,90.70
2022-11-14T04:52:55.840Z,90.70
2022-11-14T04:54:18.183Z,90.70
2022-11-14T04:55:40.269Z,90.60
2022-11-14T04:57:01.370Z,90.70
2022-11-14T04:58:23.021Z,90.70
2022-11-14T04:59:44.649Z,90.60
2022-11-14T05:01:09.889Z,90.60
2022-11-14T05:02:32.231Z,90.60
2022-11-14T05:03:54.048Z,90.60
2022-11-14T05:05:15.498Z,90.50
2022-11-14T05:06:38.881Z,90.50
2022-11-14T05:08:00.856Z,90.40
2022-11-14T05:09:21.977Z,90.40
2022-11-14T05:10:45.397Z,90.40
2022-11-14T05:12:07.095Z,90.30
2022-11-14T05:13:29.240Z,90.30
2022-11-14T05:14:50.539Z,90.30
2022-11-14T05:16:13.300Z,90.30
2022-11-14T05:17:35.110Z,90.30
2022-11-14T05:18:57.141Z,90.30
2022-11-14T05:20:18.628Z,90.30
2022-11-14T05:21:41.930Z,90.40
2022-11-14T05:23:04.127Z,90.40
2022-11-14T05:24:26.153Z,90.40
2022-11-14T05:25:47.359Z,90.40
2022-11-14T05:27:09.607Z,90.40
2022-11-14T05:28:32.117Z,90.40
2022-11-14T05:29:53.264Z,90.40
2022-11-14T05:31:17.968Z,90.30
2022-11-14T05:32:40.141Z,90.30
2022-11-14T05:34:02.275Z,90.10
2022-11-14T05:35:23.218Z,90.30
2022-11-14T05:36:46.739Z,90.40
2022-11-14T05:38:08.942Z,90.50
2022-11-14T05:39:30.910Z,90.50
2022-11-14T05:40:52.997Z,90.60
2022-11-14T05:42:15.216Z,90.60
2022-11-14T05:43:38.204Z,90.70
2022-11-14T05:45:00.284Z,90.80
2022-11-14T05:46:22.473Z,90.90
2022-11-14T05:47:43.600Z,90.80
2022-11-14T05:49:05.628Z,91.00
2022-11-14T05:50:27.554Z,90.90
2022-11-14T05:51:51.154Z,91.00
2022-11-14T05:53:13.035Z,91.10
2022-11-14T05:54:35.023Z,91.00
2022-11-14T05:56:01.004Z,91.10
2022-11-14T05:57:23.455Z,91.10
2022-11-14T05:58:45.541Z,91.10
2022-11-14T06:00:09.289Z,91.10
2022-11-14T06:01:31.525Z,91.10
2022-11-14T06:02:54.866Z,91.10
2022-11-14T06:04:16.911Z,91.10
2022-11-14T06:05:39.260Z,91.10
2022-11-14T06:07:02.737Z,91.20
2022-11-14T06:08:25.103Z,91.20
2022-11-14T06:09:47.087Z,91.30
2022-11-14T06:11:12.225Z,91.30
2022-11-14T06:12:34.457Z,91.20
2022-11-14T06:13:56.312Z,91.20
2022-11-14T06:15:19.318Z,91.20
2022-11-14T06:16:41.374Z,91.30
2022-11-14T06:18:03.263Z,91.30
2022-11-14T06:19:25.573Z,91.30
2022-11-14T06:20:47.484Z,91.20
2022-11-14T06:22:10.823Z,91.30
2022-11-14T06:23:32.037Z,91.30
2022-11-14T06:24:54.364Z,91.30
2022-11-14T06:26:23.076Z,91.20
2022-11-14T06:27:45.369Z,91.30
2022-11-14T06:29:07.664Z,91.40
2022-11-14T06:30:29.300Z,91.50
2022-11-14T06:31:51.452Z,91.50
2022-11-14T06:33:12.966Z,91.60
2022-11-14T06:34:35.047Z,91.60
2022-11-14T06:36:00.930Z,91.70
2022-11-14T06:37:24.465Z,91.70
2022-11-14T06:38:46.798Z,91.70
2022-11-14T06:40:09.904Z,91.80
2022-11-14T06:41:31.705Z,91.80
2022-11-14T06:42:56.822Z,91.90
2022-11-14T06:44:18.818Z,91.90
2022-11-14T06:45:40.783Z,92.00
2022-11-14T06:47:02.899Z,92.10
2022-11-14T06:48:24.048Z,92.10
2022-11-14T06:49:46.153Z,92.10
2022-11-14T06:51:09.173Z,92.10
2022-11-14T06:52:32.499Z,92.10
2022-11-14T06:53:54.591Z,92.10
2022-11-14T06:55:20.923Z,92.10
2022-11-14T06:56:45.971Z,92.10
2022-11-14T06:58:08.147Z,92.10
2022-11-14T06:59:30.259Z,92.10
2022-11-14T07:00:52.288Z,92.10
2022-11-14T07:02:20.450Z,92.10
2022-11-14T07:03:44.951Z,92.00
2022-11-14T07:05:07.527Z,92.10
2022-11-14T07:06:31.769Z,92.10
2022-11-14T07:07:55.003Z,92.00
2022-11-14T07:09:16.708Z,92.00
2022-11-14T07:10:38.856Z,92.00
2022-11-14T07:12:00.690Z,92.00
2022-11-14T07:13:22.824Z,92.00
2022-11-14T07:14:44.630Z,91.90
2022-11-14T07:16:07.548Z,91.90
2022-11-14T07:17:31.357Z,91.90
2022-11-14T07:18:54.043Z,91.70
2022-11-14T07:20:18.585Z,91.70
2022-11-14T07:21:40.885Z,91.70
2022-11-14T07:23:04.474Z,91.70
2022-11-14T07:24:26.281Z,91.70
2022-11-14T07:25:48.772Z,91.70
2022-11-14T07:27:12.089Z,91.70
2022-11-14T07:28:36.309Z,91.70
2022-11-14T07:29:58.203Z,91.70
2022-11-14T07:31:21.743Z,91.80
2022-11-14T07:32:43.850Z,91.80
2022-11-14T07:34:06.104Z,91.80
2022-11-14T07:35:28.132Z,91.70
2022-11-14T07:36:50.710Z,91.70
2022-11-14T07:38:13.946Z,91.60
2022-11-14T07:39:36.381Z,91.60
2022-11-14T07:41:00.473Z,91.40
2022-11-14T07:42:23.239Z,91.40
2022-11-14T07:43:45.746Z,91.60
2022-11-14T07:45:09.353Z,91.70
2022-11-14T07:46:31.463Z,91.60
2022-11-14T07:47:57.067Z,91.70
2022-11-14T07:49:19.180Z,91.90
2022-11-14T07:50:41.278Z,91.70
2022-11-14T07:52:03.496Z,91.50
2022-11-14T07:53:27.496Z,91.00
2022-11-14T07:54:49.597Z,90.40
2022-11-14T07:56:11.858Z,89.50
2022-11-14T07:57:38.914Z,88.80
2022-11-14T07:59:02.927Z,87.80
2022-11-14T08:00:24.904Z,86.70
2022-11-14T08:03:11.810Z,84.60
2022-11-14T08:04:33.671Z,83.60
2022-11-14T08:06:02.568Z,82.90
2022-11-14T08:08:48.269Z,81.10
2022-11-14T08:10:11.953Z,81.00
2022-11-14T08:11:48.781Z,80.60
2022-11-14T08:14:54.574Z,79.40
2022-11-14T08:17:39.137Z,78.30
2022-11-14T08:19:01.532Z,77.40
2022-11-14T08:20:23.414Z,76.50
2022-11-14T08:21:45.703Z,75.50
2022-11-14T08:23:08.764Z,74.10
2022-11-14T08:24:31.997Z,73.10
2022-11-14T08:25:54.307Z,72.10
2022-11-14T08:27:16.459Z,71.40
2022-11-14T08:28:38.654Z,70.00
2022-11-14T08:31:23.905Z,68.20
2022-11-14T08:32:45.700Z,67.10
2022-11-14T08:34:07.980Z,66.80
2022-11-14T08:35:30.033Z,66.50
2022-11-14T08:36:52.465Z,65.80
2022-11-14T08:38:14.352Z,65.40
2022-11-14T08:39:39.385Z,64.70
2022-11-14T08:41:01.759Z,64.60
2022-11-14T08:42:24.133Z,63.60
2022-11-14T08:43:46.920Z,63.40
2022-11-14T08:45:09.749Z,62.60
2022-11-14T08:46:31.569Z,61.60
2022-11-14T08:47:54.457Z,61.40
2022-11-14T08:50:38.537Z,59.40
2022-11-14T08:52:00.740Z,58.80
2022-11-14T08:53:23.126Z,58.40
2022-11-14T08:54:46.849Z,57.80
2022-11-14T08:56:10.807Z,57.30
2022-11-14T08:57:32.965Z,56.80
2022-11-14T08:58:55.217Z,56.60
2022-11-14T09:00:18.581Z,57.10
2022-11-14T09:01:40.644Z,56.80
2022-11-14T09:03:02.991Z,56.40
2022-11-14T09:04:25.203Z,56.40
2022-11-14T09:05:53.346Z,55.20
2022-11-14T09:07:15.091Z,54.70
2022-11-14T09:08:37.262Z,53.60
2022-11-14T09:10:00.514Z,53.60
2022-11-14T09:11:22.800Z,53.40
2022-11-14T09:12:44.925Z,53.30
2022-11-14T09:14:06.899Z,52.30
2022-11-14T09:15:29.981Z,52.60
2022-11-14T09:16:52.406Z,52.30
2022-11-14T09:18:15.245Z,50.80
2022-11-14T09:19:37.333Z,52.80
2022-11-14T09:21:02.491Z,52.00
2022-11-14T09:22:24.335Z,52.00
2022-11-14T09:25:13.040Z,51.60
2022-11-14T09:26:34.947Z,51.20
2022-11-14T09:27:57.497Z,50.40
2022-11-14T09:29:19.669Z,50.10
2022-11-14T09:30:42.047Z,48.60
2022-11-14T09:32:03.774Z,48.60
2022-11-14T09:33:26.050Z,50.20
2022-11-14T09:34:48.311Z,49.60
2022-11-14T09:36:15.961Z,49.80
2022-11-14T09:37:38.012Z,49.10
2022-11-14T09:39:00.024Z,49.90
2022-11-14T09:40:23.361Z,50.30
2022-11-14T09:42:03.733Z,50.80
2022-11-14T09:43:45.491Z,48.70
2022-11-14T09:45:13.525Z,50.30
2022-11-14T09:46:41.592Z,49.60
2022-11-14T09:48:10.575Z,50.00
2022-11-14T09:49:39.490Z,49.40
2022-11-14T09:51:11.143Z,49.60
2022-11-14T09:52:38.566Z,48.70
2022-11-14T09:54:12.485Z,49.30
2022-11-14T09:55:37.341Z,48.90
2022-11-14T09:57:01.191Z,49.60
2022-11-14T09:58:23.805Z,49.60
2022-11-14T09:59:45.898Z,49.20
2022-11-14T10:01:12.701Z,48.10
2022-11-14T10:02:44.706Z,48.60
2022-11-14T10:04:23.927Z,49.00
2022-11-14T10:06:05.104Z,46.10
2022-11-14T10:07:38.960Z,47.60
2022-11-14T10:09:27.362Z,49.00
2022-11-14T10:10:57.104Z,48.40
2022-11-14T10:12:26.235Z,49.60
2022-11-14T10:14:31.813Z,48.40
2022-11-14T10:16:00.444Z,46.60
2022-11-14T10:17:46.294Z,48.40
2022-11-14T10:19:24.428Z,48.00
2022-11-14T10:20:55.330Z,47.70
2022-11-14T10:22:34.884Z,48.60
2022-11-14T10:24:11.705Z,48.60
2022-11-14T10:25:48.245Z,48.30
2022-11-14T10:27:19.565Z,48.40
2022-11-14T10:29:01.265Z,48.60
2022-11-14T10:30:23.558Z,48.10
2022-11-14T10:31:56.134Z,48.40
2022-11-14T10:33:34.409Z,48.70
2022-11-14T10:35:03.431Z,47.80
2022-11-14T10:36:45.474Z,48.10
2022-11-14T10:38:16.769Z,48.80
2022-11-14T10:39:45.458Z,49.30
2022-11-14T10:41:19.321Z,50.10
2022-11-14T10:43:01.962Z,49.10
2022-11-14T10:44:33.237Z,47.90
2022-11-14T10:46:01.265Z,48.50
2022-11-14T10:47:26.501Z,48.10
2022-11-14T10:48:54.994Z,48.90
2022-11-14T10:50:24.137Z,49.70
2022-11-14T10:51:50.555Z,49.80
2022-11-14T10:53:22.768Z,49.40
2022-11-14T10:54:51.291Z,49.50
2022-11-14T10:57:37.157Z,47.80
2022-11-14T10:59:00.519Z,48.50
2022-11-14T11:00:23.889Z,49.00
2022-11-14T11:01:55.058Z,49.50
2022-11-14T11:03:17.549Z,49.40
2022-11-14T11:04:41.232Z,49.80
2022-11-14T11:06:03.061Z,50.00
2022-11-14T11:07:45.080Z,49.50
2022-11-14T11:09:30.431Z,50.10
2022-11-14T11:11:18.480Z,49.70
2022-11-14T11:12:46.092Z,50.40
2022-11-14T11:14:19.249Z,50.10
2022-11-14T11:15:43.315Z,50.20
2022-11-14T11:17:21.927Z,50.20
2022-11-14T11:18:47.311Z,49.80
2022-11-14T11:20:33.186Z,49.90
2022-11-14T11:21:55.122Z,50.10
2022-11-14T11:23:26.537Z,50.40
2022-11-14T11:24:48.604Z,50.90
2022-11-14T11:26:21.992Z,49.90
2022-11-14T11:27:43.999Z,50.50
2022-11-14T11:29:18.692Z,50.70
2022-11-14T11:30:41.780Z,50.30
2022-11-14T11:32:03.920Z,50.70
2022-11-14T11:33:29.812Z,50.90
2022-11-14T11:34:53.104Z,50.50
2022-11-14T11:36:21.105Z,50.70
2022-11-14T11:37:49.067Z,50.00
2022-11-14T11:39:29.315Z,50.80
2022-11-14T11:40:58.198Z,50.30
2022-11-14T11:42:24.540Z,50.30
2022-11-14T11:43:56.712Z,49.70
2022-11-14T11:45:21.778Z,50.50
2022-11-14T11:46:53.568Z,49.80
2022-11-14T11:48:19.849Z,49.50
2022-11-14T11:49:52.886Z,49.40
2022-11-14T11:51:21.752Z,49.90
2022-11-14T11:52:51.268Z,49.80
2022-11-14T11:54:19.832Z,50.70
2022-11-14T11:55:45.134Z,50.60
2022-11-14T11:57:21.409Z,51.00
2022-11-14T11:58:48.800Z,50.90
2022-11-14T12:00:18.640Z,50.60
2022-11-14T12:01:41.963Z,50.80
2022-11-14T12:03:06.315Z,50.30
2022-11-14T12:04:28.375Z,50.90
2022-11-14T12:06:03.915Z,50.90
2022-11-14T12:07:38.016Z,51.20
2022-11-14T12:09:15.187Z,50.00
2022-11-14T12:10:41.941Z,50.60
2022-11-14T12:12:13.404Z,50.50
2022-11-14T12:15:34.340Z,50.60
2022-11-14T12:17:53.104Z,49.00
2022-11-14T12:20:14.046Z,49.50
2022-11-14T12:22:00.014Z,50.80
2022-11-14T12:24:09.442Z,50.00
2022-11-14T12:25:46.080Z,50.20
2022-11-14T12:27:50.049Z,50.40
2022-11-14T12:29:47.279Z,50.90
2022-11-14T12:34:17.597Z,50.70
2022-11-14T12:35:48.968Z,51.10
2022-11-14T12:37:17.092Z,51.80
2022-11-14T12:38:44.327Z,50.70
2022-11-14T12:40:19.614Z,52.10
2022-11-14T12:41:42.742Z,51.90
2022-11-14T12:43:25.769Z,52.70
2022-11-14T12:44:48.057Z,52.90
2022-11-14T12:46:12.990Z,52.30
2022-11-14T12:47:34.921Z,52.60
2022-11-14T12:48:58.469Z,52.80
2022-11-14T12:50:41.415Z,52.60
2022-11-14T12:52:03.741Z,52.80
2022-11-14T12:53:43.554Z,52.70
2022-11-14T12:55:05.853Z,52.70
2022-11-14T12:57:00.802Z,52.80
2022-11-14T12:58:52.988Z,52.80
2022-11-14T13:00:19.250Z,53.50
2022-11-14T13:01:57.119Z,53.60
2022-11-14T13:03:46.648Z,54.50
2022-11-14T13:05:52.595Z,54.40
2022-11-14T13:07:34.275Z,54.50
2022-11-14T13:09:42.838Z,54.60
2022-11-14T13:11:50.534Z,55.20
2022-11-14T13:13:32.764Z,55.30
2022-11-14T13:15:26.862Z,55.20
2022-11-14T13:17:07.610Z,55.20
2022-11-14T13:18:47.237Z,56.00
2022-11-14T13:20:48.626Z,56.00
2022-11-14T13:22:47.906Z,56.20
2022-11-14T13:24:11.215Z,56.60
2022-11-14T13:25:33.448Z,57.00
2022-11-14T13:26:56.434Z,56.70
2022-11-14T13:28:49.971Z,56.80
2022-11-14T13:30:12.203Z,57.30
2022-11-14T13:31:53.041Z,57.20
2022-11-14T13:33:42.089Z,57.80
2022-11-14T13:35:06.872Z,58.40
2022-11-14T13:36:41.990Z,58.70
2022-11-14T13:38:42.050Z,59.40
2022-11-14T13:40:15.742Z,60.10
2022-11-14T13:42:25.852Z,60.40
2022-11-14T13:44:02.146Z,61.20
2022-11-14T13:45:49.746Z,62.20
2022-11-14T13:47:42.018Z,62.10
2022-11-14T13:49:25.374Z,62.50
2022-11-14T13:50:53.829Z,63.50
2022-11-14T13:52:18.062Z,63.80
2022-11-14T13:53:42.296Z,64.20
2022-11-14T13:55:05.388Z,64.10
2022-11-14T13:56:39.207Z,65.10
2022-11-14T13:58:25.358Z,65.50
2022-11-14T14:00:02.510Z,66.10
2022-11-14T14:01:45.243Z,66.40
2022-11-14T14:03:30.047Z,67.00
2022-11-14T14:05:05.433Z,67.30
2022-11-14T14:06:43.767Z,67.30
2022-11-14T14:08:20.733Z,67.90
2022-11-14T14:09:55.931Z,68.20
2022-11-14T14:11:43.218Z,68.10
2022-11-14T14:13:25.788Z,68.50
2022-11-14T14:15:09.707Z,69.10
2022-11-14T14:16:37.683Z,69.50
2022-11-14T14:18:10.615Z,69.40
2022-11-14T14:19:48.946Z,69.40
2022-11-14T14:21:29.054Z,69.80
2022-11-14T14:23:03.463Z,70.60
2022-11-14T14:24:50.893Z,70.80
2022-11-14T14:26:25.819Z,70.70
2022-11-14T14:28:02.777Z,71.00
2022-11-14T14:29:30.845Z,71.00
2022-11-14T14:31:04.553Z,70.90
2022-11-14T14:32:27.084Z,70.50
2022-11-14T14:33:51.411Z,70.50
2022-11-14T14:35:26.451Z,70.50
2022-11-14T14:36:53.021Z,70.30
2022-11-14T14:38:24.561Z,70.00
2022-11-14T14:40:00.322Z,70.00
2022-11-14T14:41:22.581Z,69.40
2022-11-14T14:42:50.121Z,69.40
2022-11-14T14:44:24.453Z,69.20
2022-11-14T14:45:52.475Z,69.10
2022-11-14T14:47:25.529Z,68.60
2022-11-14T14:48:47.558Z,68.50
2022-11-14T14:50:20.479Z,68.50
2022-11-14T14:51:44.467Z,68.60
2022-11-14T14:53:06.718Z,68.40
2022-11-14T14:54:30.814Z,68.90
2022-11-14T14:55:57.427Z,68.80
2022-11-14T14:57:23.390Z,69.50
2022-11-14T14:58:45.788Z,69.70
2022-11-14T15:00:18.050Z,70.20
2022-11-14T15:01:39.945Z,70.50
2022-11-14T15:03:01.973Z,70.60
2022-11-14T15:04:27.607Z,70.80
2022-11-14T15:05:50.403Z,71.10
2022-11-14T15:07:23.562Z,71.20
2022-11-14T15:08:47.568Z,71.50
2022-11-14T15:10:22.606Z,71.90
2022-11-14T15:11:50.360Z,72.20
2022-11-14T15:13:16.473Z,72.30
2022-11-14T15:14:39.838Z,72.60
2022-11-14T15:16:03.141Z,72.60
2022-11-14T15:17:26.036Z,72.90
2022-11-14T15:18:49.678Z,73.20
2022-11-14T15:20:25.233Z,73.30
2022-11-14T15:21:58.122Z,73.50
2022-11-14T15:23:22.163Z,73.50
2022-11-14T15:24:44.248Z,73.60
2022-11-14T15:26:14.332Z,73.50
2022-11-14T15:27:48.752Z,73.90
2022-11-14T15:29:19.061Z,74.00
2022-11-14T15:30:41.110Z,74.20
2022-11-14T15:32:05.734Z,74.90
2022-11-14T15:33:31.088Z,75.60
2022-11-14T15:35:09.549Z,75.60
2022-11-14T15:36:31.549Z,75.10
2022-11-14T15:38:43.100Z,76.10
2022-11-14T15:40:19.075Z,76.10
2022-11-14T15:41:40.860Z,76.30
2022-11-14T15:43:37.952Z,77.00
2022-11-14T15:45:00.133Z,77.30
2022-11-14T15:46:50.526Z,77.60
2022-11-14T15:48:17.806Z,77.80
2022-11-14T15:49:40.128Z,77.80
2022-11-14T15:51:02.040Z,77.80
2022-11-14T15:52:29.873Z,78.20
2022-11-14T15:53:54.463Z,78.00
2022-11-14T15:55:19.388Z,78.20
2022-11-14T15:56:41.361Z,78.50
2022-11-14T15:58:27.312Z,78.20
2022-11-14T15:59:47.278Z,78.60
2022-11-14T16:01:27.784Z,78.90
2022-11-14T16:02:53.645Z,79.10
2022-11-14T16:04:18.902Z,78.50
2022-11-14T16:05:41.202Z,79.50
2022-11-14T16:07:02.989Z,79.80
2022-11-14T16:08:25.167Z,79.40
2022-11-14T16:09:47.415Z,79.00
2022-11-14T16:11:09.511Z,79.60
2022-11-14T16:12:31.518Z,79.80
2022-11-14T16:13:55.212Z,79.50
2022-11-14T16:15:18.220Z,79.70
2022-11-14T16:16:40.465Z,79.70
2022-11-14T16:18:02.838Z,79.80
2022-11-14T16:19:24.882Z,80.00
2022-11-14T16:20:47.008Z,80.10
2022-11-14T16:22:14.355Z,79.70
2022-11-14T16:23:36.434Z,80.50
2022-11-14T16:25:01.064Z,80.70
2022-11-14T16:26:23.484Z,80.90
2022-11-14T16:27:45.564Z,81.00
2022-11-14T16:29:08.060Z,80.90
2022-11-14T16:30:30.259Z,80.70
2022-11-14T16:31:52.779Z,80.90
2022-11-14T16:33:14.866Z,81.00
2022-11-14T16:34:36.989Z,81.10
2022-11-14T16:36:00.414Z,81.40
2022-11-14T16:37:22.665Z,81.00
2022-11-14T16:38:48.565Z,81.20
2022-11-14T16:40:15.119Z,81.20
2022-11-14T16:41:37.173Z,81.20
2022-11-14T16:43:02.245Z,81.50
2022-11-14T16:44:26.169Z,81.80
2022-11-14T16:45:48.045Z,81.90
2022-11-14T16:47:20.400Z,82.00
2022-11-14T16:48:42.009Z,82.20
2022-11-14T16:50:04.346Z,82.00
2022-11-14T16:51:47.408Z,82.00
2022-11-14T16:53:08.878Z,82.10
2022-11-14T16:54:30.916Z,82.20
2022-11-14T16:55:53.389Z,81.80
2022-11-14T16:57:15.930Z,82.10
2022-11-14T16:58:39.910Z,82.70
2022-11-14T17:00:05.014Z,82.60
2022-11-14T17:01:27.104Z,82.60
2022-11-14T17:02:49.401Z,82.60
2022-11-14T17:04:11.715Z,82.70
2022-11-14T17:05:34.002Z,83.40
2022-11-14T17:06:56.338Z,83.20
2022-11-14T17:08:19.273Z,83.30
2022-11-14T17:09:41.413Z,83.60
2022-11-14T17:11:09.366Z,83.70
2022-11-14T17:12:32.578Z,83.70
2022-11-14T17:13:55.872Z,83.10
2022-11-14T17:15:19.106Z,83.60
2022-11-14T17:16:41.322Z,83.80
2022-11-14T17:18:02.928Z,83.90
2022-11-14T17:19:24.998Z,84.00
2022-11-14T17:20:47.128Z,84.00
2022-11-14T17:22:09.551Z,84.30
2022-11-14T17:23:32.290Z,84.20
2022-11-14T17:24:54.907Z,84.10
2022-11-14T17:26:17.120Z,84.30
2022-11-14T17:27:39.446Z,83.80
2022-11-14T17:29:02.472Z,84.10
2022-11-14T17:30:26.097Z,84.10
2022-11-14T17:31:48.319Z,84.60
2022-11-14T17:33:10.804Z,84.50
2022-11-14T17:34:33.138Z,84.20
2022-11-14T17:35:55.246Z,84.20
2022-11-14T17:37:17.361Z,84.50
2022-11-14T17:38:39.962Z,84.70
2022-11-14T17:40:02.212Z,84.70
2022-11-14T17:41:24.324Z,84.90
2022-11-14T17:42:46.389Z,84.80
2022-11-14T17:44:09.841Z,84.90
2022-11-14T17:45:33.413Z,84.80
2022-11-14T17:46:55.482Z,84.60
2022-11-14T17:48:17.509Z,84.40
2022-11-14T17:49:39.486Z,84.80
2022-11-14T17:51:06.233Z,84.90
2022-11-14T17:52:28.281Z,84.80
2022-11-14T17:53:50.471Z,85.10
2022-11-14T17:55:12.424Z,85.00
2022-11-14T17:56:34.677Z,85.10
2022-11-14T17:57:56.936Z,85.10
2022-11-14T17:59:20.420Z,85.30
2022-11-14T18:00:44.449Z,85.60
2022-11-14T18:02:06.379Z,85.90
2022-11-14T18:03:28.922Z,85.80
2022-11-14T18:04:50.893Z,85.80
2022-11-14T18:06:16.579Z,85.80
2022-11-14T18:07:38.472Z,86.20
2022-11-14T18:09:04.820Z,85.90
2022-11-14T18:10:27.105Z,85.60
2022-11-14T18:11:49.521Z,85.70
2022-11-14T18:13:11.929Z,85.70
2022-11-14T18:14:33.924Z,85.90
2022-11-14T18:16:03.167Z,85.80
2022-11-14T18:17:24.956Z,85.90
2022-11-14T18:18:47.376Z,85.90
2022-11-14T18:20:10.555Z,86.00
2022-11-14T18:21:32.627Z,85.80
2022-11-14T18:22:54.812Z,85.80
2022-11-14T18:24:16.887Z,85.90
2022-11-14T18:25:38.827Z,85.90
2022-11-14T18:27:01.334Z,85.80
2022-11-14T18:28:24.027Z,85.80
2022-11-14T18:29:46.048Z,85.80
2022-11-14T18:31:11.006Z,85.70
2022-11-14T18:32:33.587Z,85.70
2022-11-14T18:33:56.565Z,85.90
2022-11-14T18:35:19.028Z,85.80
2022-11-14T18:36:40.928Z,85.70
2022-11-14T18:38:02.794Z,86.10
2022-11-14T18:39:26.249Z,86.20
2022-11-14T18:40:52.950Z,86.20
2022-11-14T18:42:18.203Z,86.00
2022-11-14T18:43:40.479Z,86.20
2022-11-14T18:45:03.222Z,86.10
2022-11-14T18:46:27.634Z,86.40
2022-11-14T18:47:49.913Z,86.30
2022-11-14T18:49:11.881Z,86.20